sensor_id;sensor_type;location;lat;lon;timestamp;P1;durP1;ratioP1;P2;durP2;ratioP2
63444;SDS011;49573;47.682;9.170;2023-03-14T00:00:09;2.28;;;0.52;;
63444;SDS011;49573;47.682;9.170;2023-03-14T00:02:56;1.60;;;0.80;;
63444;SDS011;49573;47.682;9.170;2023-03-14T00:05:43;3.83;;;1.33;;
63444;SDS011;49573;47.682;9.170;2023-03-14T00:08:30;0.98;;;0.50;;
63444;SDS011;49573;47.682;9.170;2023-03-14T00:11:17;1.80;;;0.70;;
63444;SDS011;49573;47.682;9.170;2023-03-14T00:14:04;2.08;;;0.70;;
63444;SDS011;49573;47.682;9.170;2023-03-14T00:16:50;0.70;;;0.40;;
63444;SDS011;49573;47.682;9.170;2023-03-14T00:19:37;2.13;;;0.75;;
63444;SDS011;49573;47.682;9.170;2023-03-14T00:22:24;0.95;;;0.73;;
63444;SDS011;49573;47.682;9.170;2023-03-14T00:25:12;2.05;;;0.90;;
63444;SDS011;49573;47.682;9.170;2023-03-14T00:27:59;1.08;;;0.60;;
63444;SDS011;49573;47.682;9.170;2023-03-14T00:30:45;0.80;;;0.70;;
63444;SDS011;49573;47.682;9.170;2023-03-14T00:33:31;1.70;;;0.88;;
63444;SDS011;49573;47.682;9.170;2023-03-14T00:36:17;3.00;;;0.90;;
63444;SDS011;49573;47.682;9.170;2023-03-14T00:39:07;4.85;;;0.70;;
63444;SDS011;49573;47.682;9.170;2023-03-14T00:41:53;0.82;;;0.60;;
63444;SDS011;49573;47.682;9.170;2023-03-14T00:44:39;1.70;;;0.55;;
63444;SDS011;49573;47.682;9.170;2023-03-14T00:47:25;1.85;;;0.40;;
63444;SDS011;49573;47.682;9.170;2023-03-14T00:50:11;0.75;;;0.60;;
63444;SDS011;49573;47.682;9.170;2023-03-14T00:52:57;2.13;;;0.73;;
63444;SDS011;49573;47.682;9.170;2023-03-14T00:55:45;0.50;;;0.20;;
63444;SDS011;49573;47.682;9.170;2023-03-14T00:58:32;0.40;;;0.30;;
63444;SDS011;49573;47.682;9.170;2023-03-14T01:01:18;0.43;;;0.22;;
63444;SDS011;49573;47.682;9.170;2023-03-14T01:04:04;0.68;;;0.40;;
63444;SDS011;49573;47.682;9.170;2023-03-14T01:06:51;0.25;;;0.25;;
63444;SDS011;49573;47.682;9.170;2023-03-14T01:09:37;0.75;;;0.45;;
63444;SDS011;49573;47.682;9.170;2023-03-14T01:12:25;0.20;;;0.20;;
63444;SDS011;49573;47.682;9.170;2023-03-14T01:15:13;0.50;;;0.40;;
63444;SDS011;49573;47.682;9.170;2023-03-14T01:17:59;0.35;;;0.35;;
63444;SDS011;49573;47.682;9.170;2023-03-14T01:20:45;0.60;;;0.40;;
63444;SDS011;49573;47.682;9.170;2023-03-14T01:23:32;0.63;;;0.30;;
63444;SDS011;49573;47.682;9.170;2023-03-14T01:26:19;1.17;;;0.20;;
63444;SDS011;49573;47.682;9.170;2023-03-14T01:29:07;0.45;;;0.30;;
63444;SDS011;49573;47.682;9.170;2023-03-14T01:31:54;0.60;;;0.30;;
63444;SDS011;49573;47.682;9.170;2023-03-14T01:34:40;0.30;;;0.30;;
63444;SDS011;49573;47.682;9.170;2023-03-14T01:37:27;0.20;;;0.10;;
63444;SDS011;49573;47.682;9.170;2023-03-14T01:40:13;0.25;;;0.10;;
63444;SDS011;49573;47.682;9.170;2023-03-14T01:43:06;0.17;;;0.17;;
63444;SDS011;49573;47.682;9.170;2023-03-14T01:49:09;0.30;;;0.20;;
63444;SDS011;49573;47.682;9.170;2023-03-14T01:51:57;0.10;;;0.10;;
63444;SDS011;49573;47.682;9.170;2023-03-14T01:54:45;0.17;;;0.17;;
63444;SDS011;49573;47.682;9.170;2023-03-14T01:57:33;0.63;;;0.28;;
63444;SDS011;49573;47.682;9.170;2023-03-14T02:00:22;1.33;;;0.30;;
63444;SDS011;49573;47.682;9.170;2023-03-14T02:03:10;0.45;;;0.20;;
63444;SDS011;49573;47.682;9.170;2023-03-14T02:05:59;1.48;;;0.20;;
63444;SDS011;49573;47.682;9.170;2023-03-14T02:08:50;0.20;;;0.10;;
63444;SDS011;49573;47.682;9.170;2023-03-14T02:11:36;0.52;;;0.20;;
63444;SDS011;49573;47.682;9.170;2023-03-14T02:14:25;0.10;;;0.10;;
63444;SDS011;49573;47.682;9.170;2023-03-14T02:17:13;0.30;;;0.30;;
63444;SDS011;49573;47.682;9.170;2023-03-14T02:20:04;0.38;;;0.38;;
63444;SDS011;49573;47.682;9.170;2023-03-14T02:22:55;0.40;;;0.28;;
63444;SDS011;49573;47.682;9.170;2023-03-14T02:25:42;0.30;;;0.30;;
63444;SDS011;49573;47.682;9.170;2023-03-14T02:28:31;0.17;;;0.10;;
63444;SDS011;49573;47.682;9.170;2023-03-14T02:31:17;0.28;;;0.20;;
63444;SDS011;49573;47.682;9.170;2023-03-14T02:34:03;0.30;;;0.30;;
63444;SDS011;49573;47.682;9.170;2023-03-14T02:39:38;0.20;;;0.20;;
63444;SDS011;49573;47.682;9.170;2023-03-14T02:42:25;1.15;;;0.40;;
63444;SDS011;49573;47.682;9.170;2023-03-14T02:48:30;0.15;;;0.15;;
63444;SDS011;49573;47.682;9.170;2023-03-14T02:51:17;0.68;;;0.40;;
63444;SDS011;49573;47.682;9.170;2023-03-14T02:54:04;0.25;;;0.25;;
63444;SDS011;49573;47.682;9.170;2023-03-14T02:56:50;0.20;;;0.20;;
63444;SDS011;49573;47.682;9.170;2023-03-14T02:59:36;0.35;;;0.20;;
63444;SDS011;49573;47.682;9.170;2023-03-14T03:02:23;0.05;;;0.05;;
63444;SDS011;49573;47.682;9.170;2023-03-14T03:05:10;0.57;;;0.20;;
63444;SDS011;49573;47.682;9.170;2023-03-14T03:07:57;0.50;;;0.20;;
63444;SDS011;49573;47.682;9.170;2023-03-14T03:10:43;0.28;;;0.28;;
63444;SDS011;49573;47.682;9.170;2023-03-14T03:13:30;0.47;;;0.35;;
63444;SDS011;49573;47.682;9.170;2023-03-14T03:16:16;0.00;;;0.00;;
63444;SDS011;49573;47.682;9.170;2023-03-14T03:19:02;0.05;;;0.05;;
63444;SDS011;49573;47.682;9.170;2023-03-14T03:21:50;0.10;;;0.10;;
63444;SDS011;49573;47.682;9.170;2023-03-14T03:24:36;2.05;;;0.40;;
63444;SDS011;49573;47.682;9.170;2023-03-14T03:27:23;0.55;;;0.30;;
63444;SDS011;49573;47.682;9.170;2023-03-14T03:30:09;0.10;;;0.10;;
63444;SDS011;49573;47.682;9.170;2023-03-14T03:32:56;0.88;;;0.15;;
63444;SDS011;49573;47.682;9.170;2023-03-14T03:35:43;1.27;;;0.30;;
63444;SDS011;49573;47.682;9.170;2023-03-14T03:38:31;0.20;;;0.20;;
63444;SDS011;49573;47.682;9.170;2023-03-14T03:41:18;1.20;;;0.28;;
63444;SDS011;49573;47.682;9.170;2023-03-14T03:44:04;0.20;;;0.20;;
63444;SDS011;49573;47.682;9.170;2023-03-14T03:46:51;1.85;;;0.13;;
63444;SDS011;49573;47.682;9.170;2023-03-14T03:49:37;0.10;;;0.10;;
63444;SDS011;49573;47.682;9.170;2023-03-14T03:52:24;0.25;;;0.20;;
63444;SDS011;49573;47.682;9.170;2023-03-14T03:55:11;0.43;;;0.28;;
63444;SDS011;49573;47.682;9.170;2023-03-14T03:57:58;0.20;;;0.10;;
63444;SDS011;49573;47.682;9.170;2023-03-14T04:00:44;2.42;;;0.35;;
63444;SDS011;49573;47.682;9.170;2023-03-14T04:03:30;0.65;;;0.45;;
63444;SDS011;49573;47.682;9.170;2023-03-14T04:06:17;0.20;;;0.13;;
63444;SDS011;49573;47.682;9.170;2023-03-14T04:09:03;0.43;;;0.30;;
63444;SDS011;49573;47.682;9.170;2023-03-14T04:11:51;0.15;;;0.10;;
63444;SDS011;49573;47.682;9.170;2023-03-14T04:14:37;0.52;;;0.30;;
63444;SDS011;49573;47.682;9.170;2023-03-14T04:17:26;0.40;;;0.32;;
63444;SDS011;49573;47.682;9.170;2023-03-14T04:20:12;0.35;;;0.25;;
63444;SDS011;49573;47.682;9.170;2023-03-14T04:22:59;0.10;;;0.10;;
63444;SDS011;49573;47.682;9.170;2023-03-14T04:25:45;0.47;;;0.20;;
63444;SDS011;49573;47.682;9.170;2023-03-14T04:28:33;1.40;;;0.20;;
63444;SDS011;49573;47.682;9.170;2023-03-14T04:31:22;0.25;;;0.25;;
63444;SDS011;49573;47.682;9.170;2023-03-14T04:34:08;0.30;;;0.22;;
63444;SDS011;49573;47.682;9.170;2023-03-14T04:36:55;0.52;;;0.25;;
63444;SDS011;49573;47.682;9.170;2023-03-14T04:39:41;0.88;;;0.38;;
63444;SDS011;49573;47.682;9.170;2023-03-14T04:42:27;0.65;;;0.32;;
63444;SDS011;49573;47.682;9.170;2023-03-14T04:45:15;0.40;;;0.30;;
63444;SDS011;49573;47.682;9.170;2023-03-14T04:48:01;0.28;;;0.20;;
63444;SDS011;49573;47.682;9.170;2023-03-14T04:50:48;0.88;;;0.32;;
63444;SDS011;49573;47.682;9.170;2023-03-14T04:53:34;0.90;;;0.60;;
63444;SDS011;49573;47.682;9.170;2023-03-14T04:56:22;1.40;;;0.50;;
63444;SDS011;49573;47.682;9.170;2023-03-14T04:59:08;0.40;;;0.22;;
63444;SDS011;49573;47.682;9.170;2023-03-14T05:01:56;0.20;;;0.10;;
63444;SDS011;49573;47.682;9.170;2023-03-14T05:04:42;0.75;;;0.20;;
63444;SDS011;49573;47.682;9.170;2023-03-14T05:07:29;1.08;;;0.30;;
63444;SDS011;49573;47.682;9.170;2023-03-14T05:10:15;3.03;;;0.93;;
63444;SDS011;49573;47.682;9.170;2023-03-14T05:13:02;0.73;;;0.50;;
63444;SDS011;49573;47.682;9.170;2023-03-14T05:15:48;0.57;;;0.30;;
63444;SDS011;49573;47.682;9.170;2023-03-14T05:18:37;0.75;;;0.75;;
63444;SDS011;49573;47.682;9.170;2023-03-14T05:21:23;0.88;;;0.50;;
63444;SDS011;49573;47.682;9.170;2023-03-14T05:24:10;0.30;;;0.30;;
63444;SDS011;49573;47.682;9.170;2023-03-14T05:26:56;0.80;;;0.43;;
63444;SDS011;49573;47.682;9.170;2023-03-14T05:29:42;0.47;;;0.35;;
63444;SDS011;49573;47.682;9.170;2023-03-14T05:32:29;2.53;;;0.30;;
63444;SDS011;49573;47.682;9.170;2023-03-14T05:35:16;0.10;;;0.10;;
63444;SDS011;49573;47.682;9.170;2023-03-14T05:38:03;0.38;;;0.30;;
63444;SDS011;49573;47.682;9.170;2023-03-14T05:40:49;0.45;;;0.20;;
63444;SDS011;49573;47.682;9.170;2023-03-14T05:43:36;0.50;;;0.30;;
63444;SDS011;49573;47.682;9.170;2023-03-14T05:46:22;0.93;;;0.55;;
63444;SDS011;49573;47.682;9.170;2023-03-14T05:49:08;1.08;;;0.60;;
63444;SDS011;49573;47.682;9.170;2023-03-14T05:51:56;1.08;;;0.40;;
63444;SDS011;49573;47.682;9.170;2023-03-14T05:54:42;1.08;;;0.70;;
63444;SDS011;49573;47.682;9.170;2023-03-14T05:57:29;0.32;;;0.30;;
63444;SDS011;49573;47.682;9.170;2023-03-14T06:00:16;0.45;;;0.22;;
63444;SDS011;49573;47.682;9.170;2023-03-14T06:03:02;0.82;;;0.47;;
63444;SDS011;49573;47.682;9.170;2023-03-14T06:05:49;0.60;;;0.40;;
63444;SDS011;49573;47.682;9.170;2023-03-14T06:08:38;2.80;;;0.68;;
63444;SDS011;49573;47.682;9.170;2023-03-14T06:11:24;2.30;;;1.00;;
63444;SDS011;49573;47.682;9.170;2023-03-14T06:14:10;1.20;;;0.95;;
63444;SDS011;49573;47.682;9.170;2023-03-14T06:16:57;1.27;;;0.60;;
63444;SDS011;49573;47.682;9.170;2023-03-14T06:19:46;1.40;;;0.80;;
63444;SDS011;49573;47.682;9.170;2023-03-14T06:22:33;1.42;;;0.73;;
63444;SDS011;49573;47.682;9.170;2023-03-14T06:25:20;2.05;;;1.10;;
63444;SDS011;49573;47.682;9.170;2023-03-14T06:28:07;2.78;;;1.02;;
63444;SDS011;49573;47.682;9.170;2023-03-14T06:30:53;2.38;;;0.95;;
63444;SDS011;49573;47.682;9.170;2023-03-14T06:33:39;1.17;;;0.65;;
63444;SDS011;49573;47.682;9.170;2023-03-14T06:36:26;3.70;;;0.88;;
63444;SDS011;49573;47.682;9.170;2023-03-14T06:39:12;1.85;;;0.40;;
63444;SDS011;49573;47.682;9.170;2023-03-14T06:42:00;1.65;;;0.52;;
63444;SDS011;49573;47.682;9.170;2023-03-14T06:44:46;1.45;;;0.52;;
63444;SDS011;49573;47.682;9.170;2023-03-14T06:47:32;3.58;;;0.73;;
63444;SDS011;49573;47.682;9.170;2023-03-14T06:50:19;1.05;;;0.73;;
63444;SDS011;49573;47.682;9.170;2023-03-14T06:53:07;1.35;;;0.80;;
63444;SDS011;49573;47.682;9.170;2023-03-14T06:55:53;2.08;;;0.68;;
63444;SDS011;49573;47.682;9.170;2023-03-14T06:58:41;1.55;;;0.30;;
63444;SDS011;49573;47.682;9.170;2023-03-14T07:01:28;2.30;;;0.65;;
63444;SDS011;49573;47.682;9.170;2023-03-14T07:07:01;0.82;;;0.65;;
63444;SDS011;49573;47.682;9.170;2023-03-14T07:09:47;1.42;;;0.75;;
63444;SDS011;49573;47.682;9.170;2023-03-14T07:12:34;1.50;;;0.70;;
63444;SDS011;49573;47.682;9.170;2023-03-14T07:15:21;0.55;;;0.22;;
63444;SDS011;49573;47.682;9.170;2023-03-14T07:18:08;2.17;;;0.73;;
63444;SDS011;49573;47.682;9.170;2023-03-14T07:20:54;2.92;;;0.52;;
63444;SDS011;49573;47.682;9.170;2023-03-14T07:23:40;1.08;;;0.35;;
63444;SDS011;49573;47.682;9.170;2023-03-14T07:26:27;1.10;;;0.50;;
63444;SDS011;49573;47.682;9.170;2023-03-14T07:29:13;0.45;;;0.43;;
63444;SDS011;49573;47.682;9.170;2023-03-14T07:32:01;1.65;;;0.70;;
63444;SDS011;49573;47.682;9.170;2023-03-14T07:34:48;0.95;;;0.40;;
63444;SDS011;49573;47.682;9.170;2023-03-14T07:37:34;0.15;;;0.10;;
63444;SDS011;49573;47.682;9.170;2023-03-14T07:40:21;0.65;;;0.30;;
63444;SDS011;49573;47.682;9.170;2023-03-14T07:43:07;0.30;;;0.28;;
63444;SDS011;49573;47.682;9.170;2023-03-14T07:45:53;0.77;;;0.38;;
63444;SDS011;49573;47.682;9.170;2023-03-14T07:48:41;2.40;;;0.60;;
63444;SDS011;49573;47.682;9.170;2023-03-14T07:51:27;0.40;;;0.30;;
63444;SDS011;49573;47.682;9.170;2023-03-14T07:54:14;1.65;;;0.50;;
63444;SDS011;49573;47.682;9.170;2023-03-14T07:57:00;0.63;;;0.40;;
63444;SDS011;49573;47.682;9.170;2023-03-14T07:59:46;0.60;;;0.43;;
63444;SDS011;49573;47.682;9.170;2023-03-14T08:02:33;0.40;;;0.20;;
63444;SDS011;49573;47.682;9.170;2023-03-14T08:08:08;0.90;;;0.50;;
63444;SDS011;49573;47.682;9.170;2023-03-14T08:10:54;0.93;;;0.50;;
63444;SDS011;49573;47.682;9.170;2023-03-14T08:13:40;1.35;;;0.45;;
63444;SDS011;49573;47.682;9.170;2023-03-14T08:16:27;1.38;;;0.75;;
63444;SDS011;49573;47.682;9.170;2023-03-14T08:19:13;0.70;;;0.40;;
63444;SDS011;49573;47.682;9.170;2023-03-14T08:22:00;0.65;;;0.50;;
63444;SDS011;49573;47.682;9.170;2023-03-14T08:24:47;3.20;;;0.50;;
63444;SDS011;49573;47.682;9.170;2023-03-14T12:15:58;0.45;;;0.30;;
63444;SDS011;49573;47.682;9.170;2023-03-14T12:18:44;0.47;;;0.45;;
63444;SDS011;49573;47.682;9.170;2023-03-14T12:21:42;0.65;;;0.45;;
63444;SDS011;49573;47.682;9.170;2023-03-14T12:24:31;1.98;;;0.40;;
63444;SDS011;49573;47.682;9.170;2023-03-14T12:30:27;0.40;;;0.40;;
63444;SDS011;49573;47.682;9.170;2023-03-14T12:36:31;1.05;;;0.40;;
63444;SDS011;49573;47.682;9.170;2023-03-14T12:39:39;1.70;;;0.57;;
63444;SDS011;49573;47.682;9.170;2023-03-14T12:42:36;1.25;;;0.30;;
63444;SDS011;49573;47.682;9.170;2023-03-14T12:45:24;0.45;;;0.32;;
63444;SDS011;49573;47.682;9.170;2023-03-14T12:48:21;0.20;;;0.20;;
63444;SDS011;49573;47.682;9.170;2023-03-14T12:54:12;0.17;;;0.10;;
63444;SDS011;49573;47.682;9.170;2023-03-14T12:57:06;0.30;;;0.30;;
63444;SDS011;49573;47.682;9.170;2023-03-14T12:59:55;0.50;;;0.35;;
63444;SDS011;49573;47.682;9.170;2023-03-14T13:02:42;0.57;;;0.20;;
63444;SDS011;49573;47.682;9.170;2023-03-14T13:05:29;0.75;;;0.43;;
63444;SDS011;49573;47.682;9.170;2023-03-14T13:08:15;1.60;;;0.50;;
63444;SDS011;49573;47.682;9.170;2023-03-14T13:11:19;1.02;;;0.52;;
63444;SDS011;49573;47.682;9.170;2023-03-14T13:14:07;0.40;;;0.40;;
63444;SDS011;49573;47.682;9.170;2023-03-14T13:16:55;0.52;;;0.43;;
63444;SDS011;49573;47.682;9.170;2023-03-14T13:19:41;2.08;;;0.50;;
63444;SDS011;49573;47.682;9.170;2023-03-14T13:22:30;1.17;;;0.70;;
63444;SDS011;49573;47.682;9.170;2023-03-14T13:25:17;1.48;;;0.90;;
63444;SDS011;49573;47.682;9.170;2023-03-14T13:28:09;0.50;;;0.47;;
63444;SDS011;49573;47.682;9.170;2023-03-14T13:30:57;2.35;;;0.90;;
63444;SDS011;49573;47.682;9.170;2023-03-14T13:33:44;0.65;;;0.60;;
63444;SDS011;49573;47.682;9.170;2023-03-14T13:36:30;0.35;;;0.35;;
63444;SDS011;49573;47.682;9.170;2023-03-14T13:39:17;0.68;;;0.40;;
63444;SDS011;49573;47.682;9.170;2023-03-14T13:42:04;1.42;;;1.00;;
63444;SDS011;49573;47.682;9.170;2023-03-14T13:44:52;1.80;;;0.60;;
63444;SDS011;49573;47.682;9.170;2023-03-14T13:47:39;0.98;;;0.80;;
63444;SDS011;49573;47.682;9.170;2023-03-14T13:50:26;2.08;;;0.60;;
63444;SDS011;49573;47.682;9.170;2023-03-14T13:53:12;0.80;;;0.50;;
63444;SDS011;49573;47.682;9.170;2023-03-14T13:56:01;1.00;;;0.45;;
63444;SDS011;49573;47.682;9.170;2023-03-14T13:58:48;1.52;;;0.50;;
63444;SDS011;49573;47.682;9.170;2023-03-14T14:01:37;1.45;;;0.88;;
63444;SDS011;49573;47.682;9.170;2023-03-14T14:04:24;1.67;;;0.80;;
63444;SDS011;49573;47.682;9.170;2023-03-14T14:07:13;1.73;;;0.95;;
63444;SDS011;49573;47.682;9.170;2023-03-14T14:10:03;2.63;;;0.68;;
63444;SDS011;49573;47.682;9.170;2023-03-14T14:12:50;1.05;;;0.60;;
63444;SDS011;49573;47.682;9.170;2023-03-14T14:15:39;2.13;;;1.00;;
63444;SDS011;49573;47.682;9.170;2023-03-14T14:18:28;1.45;;;0.80;;
63444;SDS011;49573;47.682;9.170;2023-03-14T14:21:16;1.42;;;1.00;;
63444;SDS011;49573;47.682;9.170;2023-03-14T14:24:03;5.38;;;1.13;;
63444;SDS011;49573;47.682;9.170;2023-03-14T14:26:50;1.38;;;0.93;;
63444;SDS011;49573;47.682;9.170;2023-03-14T14:29:37;3.85;;;1.00;;
63444;SDS011;49573;47.682;9.170;2023-03-14T14:32:24;2.55;;;1.08;;
63444;SDS011;49573;47.682;9.170;2023-03-14T14:35:21;2.28;;;1.10;;
63444;SDS011;49573;47.682;9.170;2023-03-14T14:38:10;2.92;;;0.98;;
63444;SDS011;49573;47.682;9.170;2023-03-14T14:40:59;4.20;;;1.33;;
63444;SDS011;49573;47.682;9.170;2023-03-14T14:43:47;3.60;;;1.10;;
63444;SDS011;49573;47.682;9.170;2023-03-14T14:46:35;2.78;;;0.98;;
63444;SDS011;49573;47.682;9.170;2023-03-14T14:49:27;2.03;;;1.02;;
63444;SDS011;49573;47.682;9.170;2023-03-14T14:52:15;2.97;;;1.15;;
63444;SDS011;49573;47.682;9.170;2023-03-14T14:55:02;3.22;;;1.05;;
63444;SDS011;49573;47.682;9.170;2023-03-14T14:57:50;3.22;;;1.02;;
63444;SDS011;49573;47.682;9.170;2023-03-14T15:00:39;4.40;;;1.23;;
63444;SDS011;49573;47.682;9.170;2023-03-14T15:03:26;4.00;;;0.90;;
63444;SDS011;49573;47.682;9.170;2023-03-14T15:06:14;2.40;;;1.08;;
63444;SDS011;49573;47.682;9.170;2023-03-14T15:09:03;1.77;;;0.70;;
63444;SDS011;49573;47.682;9.170;2023-03-14T15:11:49;2.38;;;1.45;;
63444;SDS011;49573;47.682;9.170;2023-03-14T15:14:35;2.97;;;1.10;;
63444;SDS011;49573;47.682;9.170;2023-03-14T15:17:22;1.92;;;0.88;;
63444;SDS011;49573;47.682;9.170;2023-03-14T15:20:10;3.28;;;0.88;;
63444;SDS011;49573;47.682;9.170;2023-03-14T15:23:00;3.63;;;1.08;;
63444;SDS011;49573;47.682;9.170;2023-03-14T15:25:48;2.85;;;1.02;;
63444;SDS011;49573;47.682;9.170;2023-03-14T15:28:34;3.83;;;1.27;;
63444;SDS011;49573;47.682;9.170;2023-03-14T15:31:21;1.45;;;0.98;;
63444;SDS011;49573;47.682;9.170;2023-03-14T15:34:08;2.83;;;1.00;;
63444;SDS011;49573;47.682;9.170;2023-03-14T15:36:54;1.67;;;0.88;;
63444;SDS011;49573;47.682;9.170;2023-03-14T15:39:41;1.77;;;0.80;;
63444;SDS011;49573;47.682;9.170;2023-03-14T15:42:28;2.78;;;1.17;;
63444;SDS011;49573;47.682;9.170;2023-03-14T15:45:15;3.95;;;1.13;;
63444;SDS011;49573;47.682;9.170;2023-03-14T15:48:01;3.75;;;1.30;;
63444;SDS011;49573;47.682;9.170;2023-03-14T15:50:48;2.67;;;1.15;;
63444;SDS011;49573;47.682;9.170;2023-03-14T15:53:34;3.08;;;1.13;;
63444;SDS011;49573;47.682;9.170;2023-03-14T15:56:24;2.97;;;1.17;;
63444;SDS011;49573;47.682;9.170;2023-03-14T15:59:14;3.47;;;2.00;;
63444;SDS011;49573;47.682;9.170;2023-03-14T16:02:00;1.50;;;1.00;;
63444;SDS011;49573;47.682;9.170;2023-03-14T16:04:47;4.10;;;2.25;;
63444;SDS011;49573;47.682;9.170;2023-03-14T16:07:33;3.58;;;1.67;;
63444;SDS011;49573;47.682;9.170;2023-03-14T16:10:20;5.90;;;2.60;;
63444;SDS011;49573;47.682;9.170;2023-03-14T16:13:06;3.08;;;1.73;;
63444;SDS011;49573;47.682;9.170;2023-03-14T16:15:55;3.95;;;1.65;;
63444;SDS011;49573;47.682;9.170;2023-03-14T16:18:41;2.67;;;1.15;;
63444;SDS011;49573;47.682;9.170;2023-03-14T16:21:28;2.42;;;1.20;;
63444;SDS011;49573;47.682;9.170;2023-03-14T16:24:14;3.15;;;1.30;;
63444;SDS011;49573;47.682;9.170;2023-03-14T16:27:01;1.88;;;1.13;;
63444;SDS011;49573;47.682;9.170;2023-03-14T16:29:47;2.70;;;1.35;;
63444;SDS011;49573;47.682;9.170;2023-03-14T16:32:35;4.50;;;1.52;;
63444;SDS011;49573;47.682;9.170;2023-03-14T16:35:21;2.38;;;1.02;;
63444;SDS011;49573;47.682;9.170;2023-03-14T16:38:07;2.17;;;1.30;;
63444;SDS011;49573;47.682;9.170;2023-03-14T16:40:54;2.35;;;1.10;;
63444;SDS011;49573;47.682;9.170;2023-03-14T16:43:41;3.65;;;1.40;;
63444;SDS011;49573;47.682;9.170;2023-03-14T16:46:28;3.35;;;1.33;;
63444;SDS011;49573;47.682;9.170;2023-03-14T16:49:16;4.22;;;1.20;;
63444;SDS011;49573;47.682;9.170;2023-03-14T16:52:02;1.83;;;1.02;;
63444;SDS011;49573;47.682;9.170;2023-03-14T16:54:49;3.45;;;1.48;;
63444;SDS011;49573;47.682;9.170;2023-03-14T16:57:35;3.75;;;1.08;;
63444;SDS011;49573;47.682;9.170;2023-03-14T17:00:22;2.92;;;0.85;;
63444;SDS011;49573;47.682;9.170;2023-03-14T17:03:08;4.70;;;1.25;;
63444;SDS011;49573;47.682;9.170;2023-03-14T17:05:57;5.00;;;1.60;;
63444;SDS011;49573;47.682;9.170;2023-03-14T17:08:43;3.28;;;1.38;;
63444;SDS011;49573;47.682;9.170;2023-03-14T17:11:30;3.17;;;1.45;;
63444;SDS011;49573;47.682;9.170;2023-03-14T17:14:17;2.55;;;1.27;;
63444;SDS011;49573;47.682;9.170;2023-03-14T17:17:04;1.77;;;0.98;;
63444;SDS011;49573;47.682;9.170;2023-03-14T17:19:50;5.95;;;1.23;;
63444;SDS011;49573;47.682;9.170;2023-03-14T17:22:38;2.35;;;1.10;;
63444;SDS011;49573;47.682;9.170;2023-03-14T17:25:24;4.00;;;0.85;;
63444;SDS011;49573;47.682;9.170;2023-03-14T17:28:10;3.90;;;1.00;;
63444;SDS011;49573;47.682;9.170;2023-03-14T17:31:00;3.83;;;1.52;;
63444;SDS011;49573;47.682;9.170;2023-03-14T17:33:48;4.47;;;1.70;;
63444;SDS011;49573;47.682;9.170;2023-03-14T17:36:36;3.97;;;1.55;;
63444;SDS011;49573;47.682;9.170;2023-03-14T17:39:23;3.10;;;1.30;;
63444;SDS011;49573;47.682;9.170;2023-03-14T17:42:10;3.08;;;1.23;;
63444;SDS011;49573;47.682;9.170;2023-03-14T17:44:56;2.78;;;1.20;;
63444;SDS011;49573;47.682;9.170;2023-03-14T17:47:43;8.77;;;1.38;;
63444;SDS011;49573;47.682;9.170;2023-03-14T17:50:30;2.45;;;1.23;;
63444;SDS011;49573;47.682;9.170;2023-03-14T17:53:16;2.92;;;1.40;;
63444;SDS011;49573;47.682;9.170;2023-03-14T17:56:04;1.38;;;0.77;;
63444;SDS011;49573;47.682;9.170;2023-03-14T17:58:50;1.55;;;0.90;;
63444;SDS011;49573;47.682;9.170;2023-03-14T18:01:38;2.78;;;1.58;;
63444;SDS011;49573;47.682;9.170;2023-03-14T18:04:28;3.60;;;1.05;;
63444;SDS011;49573;47.682;9.170;2023-03-14T18:07:14;1.98;;;0.95;;
63444;SDS011;49573;47.682;9.170;2023-03-14T18:10:01;2.28;;;1.17;;
63444;SDS011;49573;47.682;9.170;2023-03-14T18:12:49;1.85;;;1.20;;
63444;SDS011;49573;47.682;9.170;2023-03-14T18:15:35;1.38;;;1.20;;
63444;SDS011;49573;47.682;9.170;2023-03-14T18:18:22;1.92;;;1.08;;
63444;SDS011;49573;47.682;9.170;2023-03-14T18:21:08;1.30;;;0.82;;
63444;SDS011;49573;47.682;9.170;2023-03-14T18:23:55;1.98;;;0.95;;
63444;SDS011;49573;47.682;9.170;2023-03-14T18:26:42;1.90;;;1.17;;
63444;SDS011;49573;47.682;9.170;2023-03-14T18:29:29;1.90;;;1.02;;
63444;SDS011;49573;47.682;9.170;2023-03-14T18:32:16;3.65;;;0.98;;
63444;SDS011;49573;47.682;9.170;2023-03-14T18:35:02;3.35;;;1.75;;
63444;SDS011;49573;47.682;9.170;2023-03-14T18:37:49;1.73;;;0.82;;
63444;SDS011;49573;47.682;9.170;2023-03-14T18:40:35;1.35;;;0.90;;
63444;SDS011;49573;47.682;9.170;2023-03-14T18:43:22;3.13;;;1.25;;
63444;SDS011;49573;47.682;9.170;2023-03-14T18:46:10;3.00;;;1.00;;
63444;SDS011;49573;47.682;9.170;2023-03-14T18:48:56;2.17;;;1.17;;
63444;SDS011;49573;47.682;9.170;2023-03-14T18:51:48;1.10;;;0.80;;
63444;SDS011;49573;47.682;9.170;2023-03-14T18:54:35;2.55;;;0.95;;
63444;SDS011;49573;47.682;9.170;2023-03-14T18:57:21;1.80;;;1.00;;
63444;SDS011;49573;47.682;9.170;2023-03-14T19:00:08;2.58;;;1.40;;
63444;SDS011;49573;47.682;9.170;2023-03-14T19:02:56;3.63;;;1.50;;
63444;SDS011;49573;47.682;9.170;2023-03-14T19:05:43;2.55;;;1.63;;
63444;SDS011;49573;47.682;9.170;2023-03-14T19:08:29;4.95;;;2.13;;
63444;SDS011;49573;47.682;9.170;2023-03-14T19:11:19;1.00;;;0.80;;
63444;SDS011;49573;47.682;9.170;2023-03-14T19:14:05;2.78;;;1.70;;
63444;SDS011;49573;47.682;9.170;2023-03-14T19:16:52;1.13;;;0.60;;
63444;SDS011;49573;47.682;9.170;2023-03-14T19:19:39;2.38;;;1.73;;
63444;SDS011;49573;47.682;9.170;2023-03-14T19:22:26;2.88;;;0.95;;
63444;SDS011;49573;47.682;9.170;2023-03-14T19:25:12;1.58;;;1.17;;
63444;SDS011;49573;47.682;9.170;2023-03-14T19:27:58;2.25;;;0.85;;
63444;SDS011;49573;47.682;9.170;2023-03-14T19:30:45;1.77;;;0.98;;
63444;SDS011;49573;47.682;9.170;2023-03-14T19:33:32;1.52;;;0.77;;
63444;SDS011;49573;47.682;9.170;2023-03-14T19:36:21;1.80;;;1.00;;
63444;SDS011;49573;47.682;9.170;2023-03-14T19:39:08;2.65;;;1.10;;
63444;SDS011;49573;47.682;9.170;2023-03-14T19:41:54;3.72;;;1.35;;
63444;SDS011;49573;47.682;9.170;2023-03-14T19:44:43;3.10;;;1.75;;
63444;SDS011;49573;47.682;9.170;2023-03-14T19:47:30;4.20;;;1.70;;
63444;SDS011;49573;47.682;9.170;2023-03-14T19:50:16;2.22;;;1.20;;
63444;SDS011;49573;47.682;9.170;2023-03-14T19:53:04;1.48;;;1.08;;
63444;SDS011;49573;47.682;9.170;2023-03-14T19:55:52;3.05;;;1.08;;
63444;SDS011;49573;47.682;9.170;2023-03-14T19:58:39;2.53;;;1.00;;
63444;SDS011;49573;47.682;9.170;2023-03-14T20:01:25;4.30;;;1.50;;
63444;SDS011;49573;47.682;9.170;2023-03-14T20:04:12;3.35;;;1.67;;
63444;SDS011;49573;47.682;9.170;2023-03-14T20:06:59;1.63;;;1.13;;
63444;SDS011;49573;47.682;9.170;2023-03-14T20:09:50;2.78;;;1.42;;
63444;SDS011;49573;47.682;9.170;2023-03-14T20:12:36;3.72;;;1.20;;
63444;SDS011;49573;47.682;9.170;2023-03-14T20:15:24;2.92;;;1.35;;
63444;SDS011;49573;47.682;9.170;2023-03-14T20:18:10;3.53;;;1.08;;
63444;SDS011;49573;47.682;9.170;2023-03-14T20:20:57;1.75;;;1.52;;
63444;SDS011;49573;47.682;9.170;2023-03-14T20:23:43;2.20;;;1.35;;
63444;SDS011;49573;47.682;9.170;2023-03-14T20:26:31;5.63;;;2.85;;
63444;SDS011;49573;47.682;9.170;2023-03-14T20:29:21;1.67;;;1.00;;
63444;SDS011;49573;47.682;9.170;2023-03-14T20:32:08;3.92;;;1.13;;
63444;SDS011;49573;47.682;9.170;2023-03-14T20:34:55;1.15;;;0.85;;
63444;SDS011;49573;47.682;9.170;2023-03-14T20:37:42;3.42;;;1.98;;
63444;SDS011;49573;47.682;9.170;2023-03-14T20:40:28;2.78;;;1.38;;
63444;SDS011;49573;47.682;9.170;2023-03-14T20:43:16;2.72;;;1.38;;
63444;SDS011;49573;47.682;9.170;2023-03-14T20:46:03;3.63;;;1.35;;
63444;SDS011;49573;47.682;9.170;2023-03-14T20:48:49;1.67;;;1.00;;
63444;SDS011;49573;47.682;9.170;2023-03-14T20:51:36;2.45;;;0.98;;
63444;SDS011;49573;47.682;9.170;2023-03-14T20:54:22;5.18;;;1.50;;
63444;SDS011;49573;47.682;9.170;2023-03-14T20:57:16;2.63;;;1.10;;
63444;SDS011;49573;47.682;9.170;2023-03-14T21:00:04;1.85;;;1.05;;